createdAt,value
2023-03-02T00:00:16.534Z,6.50
2023-03-02T00:05:16.487Z,6.40
2023-03-02T00:10:15.068Z,6.40
2023-03-02T00:15:13.752Z,6.10
2023-03-02T00:20:13.335Z,5.60
2023-03-02T00:25:15.134Z,5.80
2023-03-02T00:30:14.481Z,5.30
2023-03-02T00:35:13.479Z,5.30
2023-03-02T00:40:13.793Z,5.10
2023-03-02T00:45:12.905Z,5.20
2023-03-02T00:50:12.179Z,5.00
2023-03-02T00:55:12.849Z,4.50
2023-03-02T01:00:12.474Z,4.30
2023-03-02T01:05:11.982Z,4.50
2023-03-02T01:10:13.474Z,5.00
2023-03-02T01:15:13.935Z,5.10
2023-03-02T01:20:13.767Z,5.30
2023-03-02T01:25:15.658Z,5.50
2023-03-02T01:30:14.880Z,5.50
2023-03-02T01:35:13.153Z,5.40
2023-03-02T01:40:16.468Z,5.40
2023-03-02T01:45:54.917Z,5.40
2023-03-02T01:51:20.223Z,5.30
2023-03-02T01:56:25.452Z,5.50
2023-03-02T02:01:24.056Z,5.70
2023-03-02T02:06:25.973Z,5.80
2023-03-02T02:11:26.186Z,5.90
2023-03-02T02:16:24.862Z,5.70
2023-03-02T02:21:24.856Z,5.80
2023-03-02T02:26:31.225Z,6.00
2023-03-02T02:31:38.296Z,6.10
2023-03-02T02:36:41.574Z,5.60
2023-03-02T02:41:47.646Z,5.50
2023-03-02T02:46:47.734Z,5.30
2023-03-02T02:51:46.498Z,5.20
2023-03-02T02:56:50.445Z,5.40
2023-03-02T03:01:50.046Z,5.50
2023-03-02T03:06:54.056Z,5.90
2023-03-02T03:11:56.073Z,5.70
2023-03-02T03:16:56.698Z,5.70
2023-03-02T03:21:56.867Z,5.90
2023-03-02T03:26:59.560Z,6.20
2023-03-02T03:31:59.862Z,5.80
2023-03-02T03:37:01.820Z,5.90
2023-03-02T03:42:07.436Z,5.80
2023-03-02T03:47:06.275Z,5.80
2023-03-02T03:52:05.008Z,5.70
2023-03-02T03:57:05.100Z,5.60
2023-03-02T04:02:04.457Z,5.50
2023-03-02T04:07:07.625Z,5.60
2023-03-02T04:12:09.833Z,5.80
2023-03-02T04:17:10.245Z,5.70
2023-03-02T04:22:13.173Z,5.50
2023-03-02T04:27:13.362Z,5.60
2023-03-02T04:32:15.144Z,5.40
2023-03-02T04:37:17.313Z,5.50
2023-03-02T04:42:17.390Z,5.50
2023-03-02T04:47:15.953Z,5.60
2023-03-02T04:52:14.482Z,5.80
2023-03-02T04:57:13.028Z,5.50
2023-03-02T05:02:13.432Z,5.50
2023-03-02T05:07:12.031Z,5.70
2023-03-02T05:12:10.583Z,5.50
2023-03-02T05:17:09.152Z,5.50
2023-03-02T05:22:09.116Z,5.40
2023-03-02T05:27:07.673Z,5.50
2023-03-02T05:32:06.488Z,5.70
2023-03-02T05:37:04.718Z,5.40
2023-03-02T05:42:04.802Z,5.10
2023-03-02T05:47:03.379Z,4.90
2023-03-02T05:52:02.443Z,5.50
2023-03-02T05:57:00.913Z,5.60
2023-03-02T06:02:00.995Z,5.50
2023-03-02T06:06:59.632Z,5.60
2023-03-02T06:11:58.301Z,5.60
2023-03-02T06:16:56.864Z,5.60
2023-03-02T06:21:56.892Z,5.50
2023-03-02T06:26:55.714Z,5.40
2023-03-02T06:31:54.144Z,5.60
2023-03-02T06:36:52.736Z,5.20
2023-03-02T06:41:52.776Z,5.40
2023-03-02T06:46:50.993Z,5.50
2023-03-02T06:51:49.445Z,5.10
2023-03-02T06:56:47.668Z,5.00
2023-03-02T07:01:49.752Z,4.90
2023-03-02T07:06:48.015Z,4.90
2023-03-02T07:11:46.571Z,5.20
2023-03-02T07:16:46.708Z,5.10
2023-03-02T07:21:45.260Z,5.10
2023-03-02T07:26:43.745Z,5.10
2023-03-02T07:31:44.645Z,5.10
2023-03-02T07:36:44.576Z,5.10
2023-03-02T07:41:43.138Z,5.30
2023-03-02T07:46:41.736Z,5.60
2023-03-02T07:51:39.973Z,5.30
2023-03-02T07:56:39.923Z,5.40
2023-03-02T08:01:38.495Z,5.60
2023-03-02T08:06:37.149Z,5.50
2023-03-02T08:11:35.767Z,5.70
2023-03-02T08:16:36.010Z,5.60
2023-03-02T08:21:35.138Z,5.90
2023-03-02T08:26:34.014Z,6.00
2023-03-02T08:31:32.747Z,5.80
2023-03-02T08:36:32.845Z,5.60
2023-03-02T08:41:31.900Z,5.80
2023-03-02T08:46:31.625Z,5.70
2023-03-02T08:51:30.485Z,6.10
2023-03-02T08:56:33.301Z,6.00
2023-03-02T09:01:34.562Z,6.30
2023-03-02T09:06:37.014Z,6.20
2023-03-02T09:11:37.017Z,6.50
2023-03-02T09:16:35.571Z,6.20
2023-03-02T09:21:34.543Z,6.50
2023-03-02T09:26:33.352Z,6.10
2023-03-02T09:31:33.908Z,5.90
2023-03-02T09:36:33.090Z,6.40
2023-03-02T09:41:57.383Z,6.10
2023-03-02T09:47:04.079Z,6.20
2023-03-02T09:52:11.989Z,6.60
2023-03-02T09:57:23.108Z,6.40
2023-03-02T10:02:28.603Z,6.60
2023-03-02T10:07:30.587Z,6.50
2023-03-02T10:12:43.321Z,6.60
2023-03-02T10:17:54.632Z,6.80
2023-03-02T10:23:00.488Z,6.80
2023-03-02T10:28:03.288Z,7.10
2023-03-02T10:33:05.624Z,6.80
2023-03-02T10:38:12.437Z,6.70
2023-03-02T10:43:18.676Z,6.80
2023-03-02T10:48:18.732Z,7.10
2023-03-02T10:53:19.541Z,7.00
2023-03-02T10:58:27.921Z,7.40
2023-03-02T11:03:28.612Z,7.10
2023-03-02T11:08:29.371Z,7.10
2023-03-02T11:13:31.360Z,7.20
2023-03-02T11:18:36.196Z,7.30
2023-03-02T11:23:42.328Z,7.10
2023-03-02T11:28:48.444Z,7.00
2023-03-02T11:34:07.946Z,7.40
2023-03-02T11:39:17.981Z,7.50
2023-03-02T11:44:18.695Z,7.30
2023-03-02T11:49:23.344Z,7.60
2023-03-02T11:54:34.251Z,7.70
2023-03-02T11:59:33.964Z,7.50
2023-03-02T12:04:36.070Z,7.50
2023-03-02T12:09:38.350Z,7.80
2023-03-02T12:14:39.413Z,7.40
2023-03-02T12:19:45.560Z,7.30
2023-03-02T12:24:46.825Z,7.80
2023-03-02T12:29:47.543Z,7.40
2023-03-02T12:34:56.041Z,7.40
2023-03-02T12:40:18.605Z,7.60
2023-03-02T12:45:29.243Z,7.30
2023-03-02T12:50:32.399Z,7.20
2023-03-02T12:55:31.385Z,7.20
2023-03-02T13:00:32.596Z,7.30
2023-03-02T13:05:34.867Z,7.40
2023-03-02T13:10:37.443Z,7.60
2023-03-02T13:15:35.970Z,7.30
2023-03-02T13:20:36.009Z,7.30
2023-03-02T13:25:34.618Z,7.40
2023-03-02T13:30:34.318Z,7.50
2023-03-02T13:35:34.747Z,7.70
2023-03-02T13:40:40.616Z,8.00
2023-03-02T13:45:40.009Z,7.80
2023-03-02T13:50:38.776Z,7.90
2023-03-02T13:55:41.163Z,7.90
2023-03-02T14:00:41.556Z,8.10
2023-03-02T14:05:40.231Z,7.70
2023-03-02T14:10:41.604Z,7.80
2023-03-02T14:15:43.919Z,7.90
2023-03-02T14:20:42.484Z,8.00
2023-03-02T14:25:42.509Z,8.10
2023-03-02T14:30:42.035Z,8.00
2023-03-02T14:35:41.000Z,7.80
2023-03-02T14:40:41.472Z,7.90
2023-03-02T14:45:40.044Z,7.90
2023-03-02T14:50:41.846Z,7.90
2023-03-02T14:55:43.176Z,7.90
2023-03-02T15:00:41.921Z,7.90
2023-03-02T15:05:42.154Z,7.80
2023-03-02T15:10:46.992Z,7.70
2023-03-02T15:15:46.278Z,7.40
2023-03-02T15:20:44.479Z,7.60
2023-03-02T15:25:43.365Z,7.70
2023-03-02T15:30:43.224Z,7.90
2023-03-02T15:35:41.773Z,8.20
2023-03-02T15:40:40.356Z,7.70
2023-03-02T15:45:39.186Z,7.70
2023-03-02T15:50:38.849Z,7.60
2023-03-02T15:55:41.266Z,7.60
2023-03-02T16:00:40.298Z,7.50
2023-03-02T16:05:40.271Z,7.60
2023-03-02T16:10:38.872Z,7.60
2023-03-02T16:15:41.147Z,7.70
2023-03-02T16:20:41.245Z,8.00
2023-03-02T16:25:43.473Z,7.70
2023-03-02T16:30:44.570Z,7.60
2023-03-02T16:35:44.742Z,7.50
2023-03-02T16:40:43.437Z,7.30
2023-03-02T16:45:42.005Z,7.60
2023-03-02T16:50:40.651Z,7.50
2023-03-02T16:55:40.793Z,7.60
2023-03-02T17:00:39.603Z,7.50
2023-03-02T17:05:38.279Z,7.20
2023-03-02T17:10:36.932Z,7.30
2023-03-02T17:15:36.712Z,7.30
2023-03-02T17:20:35.383Z,7.30
2023-03-02T17:25:33.937Z,7.30
2023-03-02T17:30:32.526Z,7.20
2023-03-02T17:35:32.419Z,6.90
2023-03-02T17:40:31.138Z,7.20
2023-03-02T17:45:31.078Z,6.70
2023-03-02T17:50:32.900Z,6.30
2023-03-02T17:55:32.195Z,6.20
2023-03-02T18:00:31.040Z,6.40
2023-03-02T18:05:29.677Z,6.30
2023-03-02T18:10:29.582Z,6.30
2023-03-02T18:15:29.484Z,6.50
2023-03-02T18:20:28.324Z,6.60
2023-03-02T18:25:28.904Z,6.90
2023-03-02T18:30:27.950Z,6.90
2023-03-02T18:35:26.349Z,7.00
2023-03-02T18:40:24.977Z,7.00
2023-03-02T18:45:27.296Z,6.80
2023-03-02T18:50:26.536Z,6.90
2023-03-02T18:55:26.492Z,7.00
2023-03-02T19:00:28.222Z,7.10
2023-03-02T19:05:29.914Z,7.40
2023-03-02T19:10:28.461Z,7.10
2023-03-02T19:15:28.371Z,7.10
2023-03-02T19:20:28.537Z,7.30
2023-03-02T19:25:27.369Z,7.20
2023-03-02T19:30:28.889Z,7.20
2023-03-02T19:35:29.422Z,7.20
2023-03-02T19:40:30.577Z,7.30
2023-03-02T19:45:32.729Z,7.30
2023-03-02T19:50:31.820Z,7.30
2023-03-02T19:55:30.421Z,7.30
2023-03-02T20:00:32.342Z,7.30
2023-03-02T20:05:30.948Z,7.30
2023-03-02T20:10:31.916Z,7.30
2023-03-02T20:15:33.930Z,7.30
2023-03-02T20:20:32.971Z,7.30
2023-03-02T20:25:31.356Z,7.50
2023-03-02T20:30:34.832Z,7.30
2023-03-02T20:35:35.449Z,7.30
2023-03-02T20:40:34.388Z,7.30
2023-03-02T20:45:35.138Z,7.60
2023-03-02T20:50:36.119Z,7.30
2023-03-02T20:55:35.393Z,7.40
2023-03-02T21:00:37.595Z,7.40
2023-03-02T21:05:38.460Z,7.40
2023-03-02T21:10:39.841Z,7.40
2023-03-02T21:15:41.347Z,7.40
2023-03-02T21:20:39.778Z,7.70
2023-03-02T21:25:39.937Z,7.70
2023-03-02T21:30:42.049Z,7.40
2023-03-02T21:35:40.587Z,7.40
2023-03-02T21:40:43.112Z,7.40
2023-03-02T21:45:43.134Z,7.30
2023-03-02T21:50:42.408Z,7.30
2023-03-02T21:55:40.894Z,7.30
2023-03-02T22:00:40.848Z,7.30
2023-03-02T22:05:41.036Z,7.20
2023-03-02T22:10:42.596Z,7.30
2023-03-02T22:15:42.295Z,7.20
2023-03-02T22:20:44.251Z,7.20
2023-03-02T22:25:44.319Z,7.20
2023-03-02T22:30:42.787Z,7.50
2023-03-02T22:35:43.106Z,7.10
2023-03-02T22:40:43.282Z,7.10
2023-03-02T22:45:42.801Z,7.10
2023-03-02T22:50:44.389Z,7.10
2023-03-02T22:55:44.819Z,7.10
2023-03-02T23:00:43.392Z,7.10
2023-03-02T23:05:49.180Z,7.10
2023-03-02T23:10:48.079Z,7.20
2023-03-02T23:15:48.485Z,7.00
2023-03-02T23:20:48.620Z,7.10
2023-03-02T23:25:48.270Z,7.40
2023-03-02T23:30:47.908Z,7.10
2023-03-02T23:35:47.724Z,7.10
2023-03-02T23:40:45.914Z,7.10
2023-03-02T23:45:44.056Z,7.20
2023-03-02T23:50:42.563Z,7.40
2023-03-02T23:55:48.117Z,7.10
